sensor_id;sensor_type;location;lat;lon;timestamp;pressure;altitude;pressure_sealevel;temperature;humidity
30073;BME280;16897;52.422;13.678;2023-07-16T00:03:15;100335.00;;;26.78;36.10
30073;BME280;16897;52.422;13.678;2023-07-16T00:07:20;100346.53;;;26.78;36.32
30073;BME280;16897;52.422;13.678;2023-07-16T00:11:22;100356.19;;;26.73;36.23
30073;BME280;16897;52.422;13.678;2023-07-16T00:15:23;100360.09;;;26.63;36.26
30073;BME280;16897;52.422;13.678;2023-07-16T00:19:25;100355.44;;;26.51;36.14
30073;BME280;16897;52.422;13.678;2023-07-16T00:23:27;100371.97;;;26.54;36.30
30073;BME280;16897;52.422;13.678;2023-07-16T00:27:28;100387.28;;;26.60;36.72
30073;BME280;16897;52.422;13.678;2023-07-16T00:31:30;100394.84;;;26.57;36.89
30073;BME280;16897;52.422;13.678;2023-07-16T00:35:32;100429.97;;;26.68;36.75
30073;BME280;16897;52.422;13.678;2023-07-16T00:39:33;100431.78;;;26.68;37.04
30073;BME280;16897;52.422;13.678;2023-07-16T00:43:35;100427.00;;;26.57;37.25
30073;BME280;16897;52.422;13.678;2023-07-16T00:47:36;100434.44;;;26.55;37.10
30073;BME280;16897;52.422;13.678;2023-07-16T00:51:38;100422.56;;;26.42;37.05
30073;BME280;16897;52.422;13.678;2023-07-16T00:55:40;100447.38;;;26.51;37.12
30073;BME280;16897;52.422;13.678;2023-07-16T00:59:41;100484.91;;;26.58;37.02
30073;BME280;16897;52.422;13.678;2023-07-16T01:03:43;100509.78;;;26.52;37.37
30073;BME280;16897;52.422;13.678;2023-07-16T01:07:55;100551.81;;;26.51;37.46
30073;BME280;16897;52.422;13.678;2023-07-16T01:11:58;100585.91;;;26.42;37.79
30073;BME280;16897;52.422;13.678;2023-07-16T01:16:01;100612.44;;;26.37;37.37
30073;BME280;16897;52.422;13.678;2023-07-16T01:20:04;100626.78;;;26.30;37.45
30073;BME280;16897;52.422;13.678;2023-07-16T01:33:05;100659.44;;;26.03;37.85
30073;BME280;16897;52.422;13.678;2023-07-16T01:37:08;100619.13;;;25.75;38.13
30073;BME280;16897;52.422;13.678;2023-07-16T01:41:10;100639.25;;;25.71;38.31
30073;BME280;16897;52.422;13.678;2023-07-16T01:45:12;100646.69;;;25.76;38.28
30073;BME280;16897;52.422;13.678;2023-07-16T01:49:13;100666.91;;;25.78;38.14
30073;BME280;16897;52.422;13.678;2023-07-16T01:53:15;100664.31;;;25.70;38.26
30073;BME280;16897;52.422;13.678;2023-07-16T01:57:16;100675.03;;;25.70;38.51
30073;BME280;16897;52.422;13.678;2023-07-16T02:01:19;100666.28;;;25.61;38.27
30073;BME280;16897;52.422;13.678;2023-07-16T02:05:21;100664.53;;;25.69;38.42
30073;BME280;16897;52.422;13.678;2023-07-16T02:09:22;100666.72;;;25.65;38.37
30073;BME280;16897;52.422;13.678;2023-07-16T02:13:24;100623.03;;;25.43;38.71
30073;BME280;16897;52.422;13.678;2023-07-16T02:17:26;100662.88;;;25.53;38.82
30073;BME280;16897;52.422;13.678;2023-07-16T02:21:27;100657.78;;;25.43;39.17
30073;BME280;16897;52.422;13.678;2023-07-16T02:25:29;100681.31;;;25.48;39.11
30073;BME280;16897;52.422;13.678;2023-07-16T02:29:31;100693.66;;;25.49;38.76
30073;BME280;16897;52.422;13.678;2023-07-16T02:33:33;100704.72;;;25.46;39.04
30073;BME280;16897;52.422;13.678;2023-07-16T02:37:34;100706.66;;;25.37;39.35
30073;BME280;16897;52.422;13.678;2023-07-16T02:41:36;100730.53;;;25.38;38.99
30073;BME280;16897;52.422;13.678;2023-07-16T02:45:38;100705.31;;;25.33;39.46
30073;BME280;16897;52.422;13.678;2023-07-16T02:49:40;100688.25;;;25.19;39.28
30073;BME280;16897;52.422;13.678;2023-07-16T02:53:42;100719.19;;;25.13;39.56
30073;BME280;16897;52.422;13.678;2023-07-16T02:57:43;100689.81;;;24.90;39.36
30073;BME280;16897;52.422;13.678;2023-07-16T03:01:45;100702.88;;;24.85;39.68
30073;BME280;16897;52.422;13.678;2023-07-16T03:05:47;100726.59;;;25.03;39.06
30073;BME280;16897;52.422;13.678;2023-07-16T03:09:48;100727.63;;;25.02;39.55
30073;BME280;16897;52.422;13.678;2023-07-16T03:13:51;100698.13;;;24.95;39.58
30073;BME280;16897;52.422;13.678;2023-07-16T03:17:53;100698.22;;;25.02;39.90
30073;BME280;16897;52.422;13.678;2023-07-16T03:21:54;100680.19;;;25.04;39.84
30073;BME280;16897;52.422;13.678;2023-07-16T03:25:56;100661.47;;;25.04;39.49
30073;BME280;16897;52.422;13.678;2023-07-16T03:29:58;100636.13;;;25.00;39.87
30073;BME280;16897;52.422;13.678;2023-07-16T03:34:00;100653.47;;;25.04;39.55
30073;BME280;16897;52.422;13.678;2023-07-16T03:38:05;100623.56;;;24.86;40.04
30073;BME280;16897;52.422;13.678;2023-07-16T03:42:07;100651.78;;;25.03;39.83
30073;BME280;16897;52.422;13.678;2023-07-16T03:46:08;100616.94;;;24.82;39.88
30073;BME280;16897;52.422;13.678;2023-07-16T03:50:10;100651.69;;;24.97;39.98
30073;BME280;16897;52.422;13.678;2023-07-16T03:54:11;100641.28;;;25.02;40.05
30073;BME280;16897;52.422;13.678;2023-07-16T03:58:13;100593.53;;;24.84;39.97
30073;BME280;16897;52.422;13.678;2023-07-16T04:02:15;100621.78;;;24.78;40.01
30073;BME280;16897;52.422;13.678;2023-07-16T04:06:17;100645.31;;;24.83;40.53
30073;BME280;16897;52.422;13.678;2023-07-16T04:10:18;100668.81;;;24.87;40.17
30073;BME280;16897;52.422;13.678;2023-07-16T04:14:20;100669.66;;;24.88;40.67
30073;BME280;16897;52.422;13.678;2023-07-16T04:18:22;100625.91;;;24.66;40.48
30073;BME280;16897;52.422;13.678;2023-07-16T04:22:23;100673.97;;;24.89;40.44
30073;BME280;16897;52.422;13.678;2023-07-16T04:26:24;100702.63;;;24.95;40.54
30073;BME280;16897;52.422;13.678;2023-07-16T04:30:26;100683.66;;;24.90;40.43
30073;BME280;16897;52.422;13.678;2023-07-16T04:34:28;100697.78;;;24.99;40.72
30073;BME280;16897;52.422;13.678;2023-07-16T04:38:30;100702.09;;;25.00;40.74
30073;BME280;16897;52.422;13.678;2023-07-16T04:42:31;100701.34;;;24.91;40.80
30073;BME280;16897;52.422;13.678;2023-07-16T04:46:33;100713.50;;;24.93;41.30
30073;BME280;16897;52.422;13.678;2023-07-16T04:50:35;100711.78;;;25.01;40.69
30073;BME280;16897;52.422;13.678;2023-07-16T04:54:37;100710.38;;;24.90;41.18
30073;BME280;16897;52.422;13.678;2023-07-16T04:58:39;100685.44;;;24.75;40.89
30073;BME280;16897;52.422;13.678;2023-07-16T05:02:41;100738.50;;;25.01;41.07
30073;BME280;16897;52.422;13.678;2023-07-16T05:06:42;100718.19;;;24.91;41.27
30073;BME280;16897;52.422;13.678;2023-07-16T05:10:43;100718.66;;;24.95;41.40
30073;BME280;16897;52.422;13.678;2023-07-16T05:14:47;100745.38;;;24.95;41.42
30073;BME280;16897;52.422;13.678;2023-07-16T05:18:49;100750.78;;;24.87;41.44
30073;BME280;16897;52.422;13.678;2023-07-16T05:22:50;100746.47;;;24.86;41.38
30073;BME280;16897;52.422;13.678;2023-07-16T05:26:52;100782.63;;;24.97;41.44
30073;BME280;16897;52.422;13.678;2023-07-16T05:31:00;100754.78;;;24.91;41.44
30073;BME280;16897;52.422;13.678;2023-07-16T05:35:01;100771.22;;;25.03;41.56
30073;BME280;16897;52.422;13.678;2023-07-16T05:39:03;100757.75;;;24.96;41.78
30073;BME280;16897;52.422;13.678;2023-07-16T05:43:04;100767.25;;;24.99;41.64
30073;BME280;16897;52.422;13.678;2023-07-16T05:47:06;100781.00;;;25.10;41.71
30073;BME280;16897;52.422;13.678;2023-07-16T05:51:09;100773.47;;;25.14;41.91
30073;BME280;16897;52.422;13.678;2023-07-16T05:55:10;100766.44;;;25.21;41.72
30073;BME280;16897;52.422;13.678;2023-07-16T05:59:11;100776.69;;;25.32;41.75
30073;BME280;16897;52.422;13.678;2023-07-16T06:03:13;100752.59;;;25.17;42.18
30073;BME280;16897;52.422;13.678;2023-07-16T06:07:17;100782.91;;;25.48;42.11
30073;BME280;16897;52.422;13.678;2023-07-16T06:11:19;100775.00;;;25.54;42.32
30073;BME280;16897;52.422;13.678;2023-07-16T06:15:20;100778.72;;;25.68;41.96
30073;BME280;16897;52.422;13.678;2023-07-16T06:19:23;100783.13;;;25.76;42.31
30073;BME280;16897;52.422;13.678;2023-07-16T06:23:24;100790.94;;;25.86;42.33
30073;BME280;16897;52.422;13.678;2023-07-16T06:27:26;100782.38;;;25.90;42.24
30073;BME280;16897;52.422;13.678;2023-07-16T06:31:27;100768.34;;;25.88;42.56
30073;BME280;16897;52.422;13.678;2023-07-16T06:35:29;100779.03;;;26.03;42.21
30073;BME280;16897;52.422;13.678;2023-07-16T06:39:31;100794.06;;;26.19;42.69
30073;BME280;16897;52.422;13.678;2023-07-16T06:43:33;100792.97;;;26.13;42.38
30073;BME280;16897;52.422;13.678;2023-07-16T06:47:34;100821.03;;;26.32;42.28
30073;BME280;16897;52.422;13.678;2023-07-16T06:51:36;100761.16;;;26.03;42.40
30073;BME280;16897;52.422;13.678;2023-07-16T06:55:38;100807.53;;;26.40;42.50
30073;BME280;16897;52.422;13.678;2023-07-16T06:59:39;100814.84;;;26.46;42.33
30073;BME280;16897;52.422;13.678;2023-07-16T07:03:41;100794.16;;;26.40;42.57
30073;BME280;16897;52.422;13.678;2023-07-16T07:07:43;100821.78;;;26.56;42.80
30073;BME280;16897;52.422;13.678;2023-07-16T07:11:46;100823.31;;;26.65;42.84
30073;BME280;16897;52.422;13.678;2023-07-16T07:15:47;100832.94;;;26.74;42.93
30073;BME280;16897;52.422;13.678;2023-07-16T07:19:49;100834.03;;;26.80;42.38
30073;BME280;16897;52.422;13.678;2023-07-16T07:23:50;100830.16;;;26.82;42.74
30073;BME280;16897;52.422;13.678;2023-07-16T07:27:51;100838.44;;;26.87;42.62
30073;BME280;16897;52.422;13.678;2023-07-16T07:31:53;100842.00;;;26.95;42.76
30073;BME280;16897;52.422;13.678;2023-07-16T07:35:54;100814.13;;;26.89;42.75
30073;BME280;16897;52.422;13.678;2023-07-16T07:39:59;100847.03;;;27.19;43.00
30073;BME280;16897;52.422;13.678;2023-07-16T07:44:01;100849.72;;;27.19;42.68
30073;BME280;16897;52.422;13.678;2023-07-16T07:48:02;100860.59;;;27.32;42.77
30073;BME280;16897;52.422;13.678;2023-07-16T07:52:04;100849.72;;;27.41;42.77
30073;BME280;16897;52.422;13.678;2023-07-16T07:56:07;100847.06;;;27.41;42.84
30073;BME280;16897;52.422;13.678;2023-07-16T08:00:09;100846.31;;;27.47;42.96
30073;BME280;16897;52.422;13.678;2023-07-16T08:04:16;100856.91;;;27.55;42.48
30073;BME280;16897;52.422;13.678;2023-07-16T08:08:18;100858.38;;;27.57;42.58
30073;BME280;16897;52.422;13.678;2023-07-16T08:12:19;100866.28;;;27.66;43.01
30073;BME280;16897;52.422;13.678;2023-07-16T08:16:21;100862.53;;;27.82;43.24
30073;BME280;16897;52.422;13.678;2023-07-16T08:20:23;100858.06;;;27.95;42.68
30073;BME280;16897;52.422;13.678;2023-07-16T08:24:25;100836.09;;;27.85;42.87
30073;BME280;16897;52.422;13.678;2023-07-16T08:28:27;100804.03;;;27.77;42.66
30073;BME280;16897;52.422;13.678;2023-07-16T08:32:28;100871.06;;;28.27;43.15
30073;BME280;16897;52.422;13.678;2023-07-16T08:36:30;100875.28;;;28.36;42.90
30073;BME280;16897;52.422;13.678;2023-07-16T08:40:31;100874.47;;;28.42;42.59
30073;BME280;16897;52.422;13.678;2023-07-16T08:44:32;100871.41;;;28.45;43.05
30073;BME280;16897;52.422;13.678;2023-07-16T08:48:34;100862.31;;;28.46;42.92
30073;BME280;16897;52.422;13.678;2023-07-16T08:52:35;100864.06;;;28.60;42.81
30073;BME280;16897;52.422;13.678;2023-07-16T08:56:37;100894.28;;;28.76;42.86
30073;BME280;16897;52.422;13.678;2023-07-16T09:00:38;100916.19;;;28.73;42.89
30073;BME280;16897;52.422;13.678;2023-07-16T09:04:40;100914.09;;;28.61;42.43
30073;BME280;16897;52.422;13.678;2023-07-16T09:08:42;100920.44;;;28.54;42.43
30073;BME280;16897;52.422;13.678;2023-07-16T09:12:47;100917.72;;;28.47;42.45
30073;BME280;16897;52.422;13.678;2023-07-16T09:16:52;100923.50;;;28.44;42.06
30073;BME280;16897;52.422;13.678;2023-07-16T09:20:57;100913.38;;;28.46;42.47
30073;BME280;16897;52.422;13.678;2023-07-16T09:25:00;100911.38;;;28.55;42.57
30073;BME280;16897;52.422;13.678;2023-07-16T09:29:05;100903.97;;;28.63;42.53
30073;BME280;16897;52.422;13.678;2023-07-16T09:33:12;100919.34;;;28.76;42.24
30073;BME280;16897;52.422;13.678;2023-07-16T09:37:14;100914.38;;;28.80;42.51
30073;BME280;16897;52.422;13.678;2023-07-16T09:41:15;100898.44;;;28.72;42.09
30073;BME280;16897;52.422;13.678;2023-07-16T09:45:18;100914.63;;;28.85;42.56
30073;BME280;16897;52.422;13.678;2023-07-16T09:49:20;100908.19;;;28.86;41.94
30073;BME280;16897;52.422;13.678;2023-07-16T09:53:23;100917.94;;;28.94;41.98
30073;BME280;16897;52.422;13.678;2023-07-16T09:57:25;100921.97;;;29.04;41.91
30073;BME280;16897;52.422;13.678;2023-07-16T10:01:28;100927.38;;;29.18;41.98
30073;BME280;16897;52.422;13.678;2023-07-16T10:05:31;100922.63;;;29.26;41.81
30073;BME280;16897;52.422;13.678;2023-07-16T10:09:40;100917.88;;;29.28;41.99
30073;BME280;16897;52.422;13.678;2023-07-16T10:13:41;100903.41;;;29.29;42.05
30073;BME280;16897;52.422;13.678;2023-07-16T10:17:50;100933.66;;;29.51;42.12
30073;BME280;16897;52.422;13.678;2023-07-16T10:21:51;100892.22;;;29.32;41.88
30073;BME280;16897;52.422;13.678;2023-07-16T10:26:00;100908.41;;;29.52;41.92
30073;BME280;16897;52.422;13.678;2023-07-16T10:30:03;100926.44;;;29.59;41.71
30073;BME280;16897;52.422;13.678;2023-07-16T10:34:05;100903.84;;;29.33;41.47
30073;BME280;16897;52.422;13.678;2023-07-16T10:38:06;100939.66;;;29.47;41.41
30073;BME280;16897;52.422;13.678;2023-07-16T10:42:08;100943.81;;;29.56;41.46
30073;BME280;16897;52.422;13.678;2023-07-16T10:46:10;100950.66;;;29.59;41.45
30073;BME280;16897;52.422;13.678;2023-07-16T10:50:12;100957.31;;;29.63;41.20
30073;BME280;16897;52.422;13.678;2023-07-16T10:54:13;100944.84;;;29.55;41.35
30073;BME280;16897;52.422;13.678;2023-07-16T10:58:15;100947.97;;;29.59;41.00
30073;BME280;16897;52.422;13.678;2023-07-16T11:02:17;100949.84;;;29.65;41.33
30073;BME280;16897;52.422;13.678;2023-07-16T11:06:18;100932.44;;;29.61;41.42
30073;BME280;16897;52.422;13.678;2023-07-16T11:10:20;100945.72;;;29.75;41.15
30073;BME280;16897;52.422;13.678;2023-07-16T11:14:22;100929.59;;;29.69;41.14
30073;BME280;16897;52.422;13.678;2023-07-16T11:18:24;100928.13;;;29.73;41.12
30073;BME280;16897;52.422;13.678;2023-07-16T11:22:26;100919.22;;;29.66;41.43
30073;BME280;16897;52.422;13.678;2023-07-16T11:26:29;100952.38;;;29.86;41.40
30073;BME280;16897;52.422;13.678;2023-07-16T11:30:30;100949.25;;;29.89;41.15
30073;BME280;16897;52.422;13.678;2023-07-16T11:34:33;100951.97;;;29.96;40.81
30073;BME280;16897;52.422;13.678;2023-07-16T11:38:38;100934.34;;;30.00;41.16
30073;BME280;16897;52.422;13.678;2023-07-16T11:42:40;100935.81;;;30.09;41.09
30073;BME280;16897;52.422;13.678;2023-07-16T11:46:46;100934.13;;;30.08;41.10
30073;BME280;16897;52.422;13.678;2023-07-16T11:50:48;100935.78;;;30.16;40.71
30073;BME280;16897;52.422;13.678;2023-07-16T11:54:54;100925.44;;;30.19;40.68
30073;BME280;16897;52.422;13.678;2023-07-16T11:58:56;100936.84;;;30.41;40.62
30073;BME280;16897;52.422;13.678;2023-07-16T12:02:57;100907.59;;;30.32;40.79
30073;BME280;16897;52.422;13.678;2023-07-16T12:06:59;100931.19;;;30.63;40.51
30073;BME280;16897;52.422;13.678;2023-07-16T12:11:00;100937.41;;;30.57;40.68
30073;BME280;16897;52.422;13.678;2023-07-16T12:15:02;100919.56;;;30.56;40.59
30073;BME280;16897;52.422;13.678;2023-07-16T12:19:04;100939.00;;;30.78;40.32
30073;BME280;16897;52.422;13.678;2023-07-16T12:23:06;100948.75;;;30.85;40.17
30073;BME280;16897;52.422;13.678;2023-07-16T12:27:07;100934.06;;;30.81;40.30
30073;BME280;16897;52.422;13.678;2023-07-16T12:31:09;100943.97;;;30.88;40.13
30073;BME280;16897;52.422;13.678;2023-07-16T12:35:10;100950.59;;;30.92;40.19
30073;BME280;16897;52.422;13.678;2023-07-16T12:39:12;100946.06;;;30.85;39.83
30073;BME280;16897;52.422;13.678;2023-07-16T12:43:14;100959.72;;;30.91;40.01
30073;BME280;16897;52.422;13.678;2023-07-16T12:47:15;100958.69;;;30.92;40.01
30073;BME280;16897;52.422;13.678;2023-07-16T12:51:17;100931.56;;;30.73;39.72
30073;BME280;16897;52.422;13.678;2023-07-16T12:55:19;100952.25;;;30.93;39.78
30073;BME280;16897;52.422;13.678;2023-07-16T12:59:20;100961.13;;;31.00;39.65
30073;BME280;16897;52.422;13.678;2023-07-16T13:03:22;100951.03;;;30.89;39.58
30073;BME280;16897;52.422;13.678;2023-07-16T13:07:24;100953.09;;;30.93;39.36
30073;BME280;16897;52.422;13.678;2023-07-16T13:11:26;100914.72;;;30.78;39.26
30073;BME280;16897;52.422;13.678;2023-07-16T13:15:27;100941.91;;;30.90;39.59
30073;BME280;16897;52.422;13.678;2023-07-16T13:19:29;100962.38;;;31.04;39.31
30073;BME280;16897;52.422;13.678;2023-07-16T13:23:30;100975.44;;;31.14;38.91
30073;BME280;16897;52.422;13.678;2023-07-16T13:27:32;100960.50;;;31.11;38.79
30073;BME280;16897;52.422;13.678;2023-07-16T13:31:33;100949.03;;;31.16;38.82
30073;BME280;16897;52.422;13.678;2023-07-16T13:35:35;100961.03;;;31.26;38.70
30073;BME280;16897;52.422;13.678;2023-07-16T13:39:36;100973.25;;;31.36;38.63
30073;BME280;16897;52.422;13.678;2023-07-16T13:43:37;100982.13;;;31.43;38.83
30073;BME280;16897;52.422;13.678;2023-07-16T13:47:39;100950.47;;;31.25;38.44
30073;BME280;16897;52.422;13.678;2023-07-16T13:51:40;100964.53;;;31.34;38.65
30073;BME280;16897;52.422;13.678;2023-07-16T13:55:41;100991.69;;;31.45;38.26
30073;BME280;16897;52.422;13.678;2023-07-16T13:59:44;100986.06;;;31.47;38.33
30073;BME280;16897;52.422;13.678;2023-07-16T14:03:46;100986.72;;;31.42;38.01
30073;BME280;16897;52.422;13.678;2023-07-16T14:07:47;100973.06;;;31.30;37.95
30073;BME280;16897;52.422;13.678;2023-07-16T14:11:48;100997.50;;;31.49;38.08
30073;BME280;16897;52.422;13.678;2023-07-16T14:15:50;100993.94;;;31.48;38.09
30073;BME280;16897;52.422;13.678;2023-07-16T14:19:51;100997.66;;;31.54;37.72
30073;BME280;16897;52.422;13.678;2023-07-16T14:23:53;100994.53;;;31.57;37.67
30073;BME280;16897;52.422;13.678;2023-07-16T14:27:54;100990.16;;;31.56;37.74
30073;BME280;16897;52.422;13.678;2023-07-16T14:31:56;101004.47;;;31.63;37.80
30073;BME280;16897;52.422;13.678;2023-07-16T14:35:57;100990.97;;;31.63;37.43
30073;BME280;16897;52.422;13.678;2023-07-16T14:39:59;100990.34;;;31.61;37.58
30073;BME280;16897;52.422;13.678;2023-07-16T14:44:01;100991.13;;;31.68;37.18
30073;BME280;16897;52.422;13.678;2023-07-16T14:48:03;100982.25;;;31.61;37.08
30073;BME280;16897;52.422;13.678;2023-07-16T14:52:05;100999.59;;;31.79;37.27
30073;BME280;16897;52.422;13.678;2023-07-16T14:56:07;100996.66;;;31.80;37.18
30073;BME280;16897;52.422;13.678;2023-07-16T15:00:10;100997.88;;;31.84;36.80
30073;BME280;16897;52.422;13.678;2023-07-16T15:04:12;100990.44;;;31.80;36.79
30073;BME280;16897;52.422;13.678;2023-07-16T15:08:14;100978.81;;;31.79;36.80
30073;BME280;16897;52.422;13.678;2023-07-16T15:12:16;100995.41;;;31.83;36.67
30073;BME280;16897;52.422;13.678;2023-07-16T15:16:18;100992.03;;;31.87;36.45
30073;BME280;16897;52.422;13.678;2023-07-16T15:20:19;100975.44;;;31.84;36.54
30073;BME280;16897;52.422;13.678;2023-07-16T15:24:21;100992.25;;;31.86;36.35
30073;BME280;16897;52.422;13.678;2023-07-16T15:28:22;100990.44;;;31.80;36.13
30073;BME280;16897;52.422;13.678;2023-07-16T15:32:24;100967.66;;;31.69;36.03
30073;BME280;16897;52.422;13.678;2023-07-16T15:36:26;100972.16;;;31.75;36.38
30073;BME280;16897;52.422;13.678;2023-07-16T15:40:27;100958.91;;;31.73;36.25
30073;BME280;16897;52.422;13.678;2023-07-16T15:44:30;100977.75;;;31.80;35.78
30073;BME280;16897;52.422;13.678;2023-07-16T15:48:32;100975.88;;;31.81;35.78
30073;BME280;16897;52.422;13.678;2023-07-16T15:52:34;100983.53;;;31.84;35.65
30073;BME280;16897;52.422;13.678;2023-07-16T15:56:35;100979.41;;;31.81;35.63
30073;BME280;16897;52.422;13.678;2023-07-16T16:00:37;100968.84;;;31.73;35.55
30073;BME280;16897;52.422;13.678;2023-07-16T16:04:38;100988.56;;;31.80;35.39
30073;BME280;16897;52.422;13.678;2023-07-16T16:08:40;100963.44;;;31.73;35.54
30073;BME280;16897;52.422;13.678;2023-07-16T16:12:41;100963.91;;;31.70;35.61
30073;BME280;16897;52.422;13.678;2023-07-16T16:16:43;100986.72;;;31.74;35.24
30073;BME280;16897;52.422;13.678;2023-07-16T16:20:46;100970.19;;;31.64;35.25
30073;BME280;16897;52.422;13.678;2023-07-16T16:24:48;100999.63;;;31.72;34.92
30073;BME280;16897;52.422;13.678;2023-07-16T16:28:49;100992.34;;;31.72;35.04
30073;BME280;16897;52.422;13.678;2023-07-16T16:32:51;101007.97;;;31.70;34.98
30073;BME280;16897;52.422;13.678;2023-07-16T16:36:56;100978.63;;;31.42;34.97
30073;BME280;16897;52.422;13.678;2023-07-16T16:41:02;100980.31;;;31.37;35.18
30073;BME280;16897;52.422;13.678;2023-07-16T16:45:10;100965.38;;;31.27;35.09
30073;BME280;16897;52.422;13.678;2023-07-16T16:49:12;100983.19;;;31.35;35.02
30073;BME280;16897;52.422;13.678;2023-07-16T16:53:15;100960.00;;;31.21;34.79
30073;BME280;16897;52.422;13.678;2023-07-16T16:57:16;100999.19;;;31.43;34.84
30073;BME280;16897;52.422;13.678;2023-07-16T17:01:18;101000.66;;;31.39;34.48
30073;BME280;16897;52.422;13.678;2023-07-16T17:05:21;101000.66;;;31.33;34.74
30073;BME280;16897;52.422;13.678;2023-07-16T17:09:23;100997.72;;;31.34;34.81
30073;BME280;16897;52.422;13.678;2023-07-16T17:13:25;101008.75;;;31.33;34.58
30073;BME280;16897;52.422;13.678;2023-07-16T17:17:26;100963.84;;;31.00;34.30
30073;BME280;16897;52.422;13.678;2023-07-16T17:21:28;101012.28;;;31.26;34.73
30073;BME280;16897;52.422;13.678;2023-07-16T17:25:31;100976.72;;;30.98;34.55
30073;BME280;16897;52.422;13.678;2023-07-16T17:29:33;100958.09;;;30.70;34.25
30073;BME280;16897;52.422;13.678;2023-07-16T17:33:34;100990.47;;;30.83;34.46
30073;BME280;16897;52.422;13.678;2023-07-16T17:37:36;101020.28;;;31.01;33.96
30073;BME280;16897;52.422;13.678;2023-07-16T17:41:38;100975.97;;;30.64;34.34
30073;BME280;16897;52.422;13.678;2023-07-16T17:45:40;100999.19;;;30.72;34.33
30073;BME280;16897;52.422;13.678;2023-07-16T17:49:42;100990.06;;;30.59;34.24
30073;BME280;16897;52.422;13.678;2023-07-16T17:53:46;100994.25;;;30.55;34.23
30073;BME280;16897;52.422;13.678;2023-07-16T17:57:51;101025.94;;;30.73;34.10
30073;BME280;16897;52.422;13.678;2023-07-16T18:01:56;100973.09;;;30.32;34.23
30073;BME280;16897;52.422;13.678;2023-07-16T18:05:58;101035.28;;;30.64;34.12
30073;BME280;16897;52.422;13.678;2023-07-16T18:10:02;101039.84;;;30.57;33.91
30073;BME280;16897;52.422;13.678;2023-07-16T18:14:04;100992.19;;;30.24;34.06
30073;BME280;16897;52.422;13.678;2023-07-16T18:18:06;101039.03;;;30.50;34.14
30073;BME280;16897;52.422;13.678;2023-07-16T18:22:07;100998.38;;;30.18;34.20
30073;BME280;16897;52.422;13.678;2023-07-16T18:26:08;101010.03;;;30.25;34.13
30073;BME280;16897;52.422;13.678;2023-07-16T18:30:12;101009.56;;;30.15;33.93
30073;BME280;16897;52.422;13.678;2023-07-16T18:34:13;100994.66;;;29.99;34.14
30073;BME280;16897;52.422;13.678;2023-07-16T18:38:15;101024.28;;;30.06;34.00
30073;BME280;16897;52.422;13.678;2023-07-16T18:42:16;101024.06;;;29.94;34.30
30073;BME280;16897;52.422;13.678;2023-07-16T18:46:18;101045.19;;;29.97;34.10
30073;BME280;16897;52.422;13.678;2023-07-16T18:50:19;101054.91;;;29.91;33.91
30073;BME280;16897;52.422;13.678;2023-07-16T18:54:20;101014.00;;;29.54;34.05
30073;BME280;16897;52.422;13.678;2023-07-16T18:58:22;101047.63;;;29.65;33.90
30073;BME280;16897;52.422;13.678;2023-07-16T19:02:24;101057.50;;;29.58;33.95
30073;BME280;16897;52.422;13.678;2023-07-16T19:06:25;101064.94;;;29.49;34.29
30073;BME280;16897;52.422;13.678;2023-07-16T19:10:27;101055.75;;;29.37;34.19
30073;BME280;16897;52.422;13.678;2023-07-16T19:14:29;101067.72;;;29.28;34.11
30073;BME280;16897;52.422;13.678;2023-07-16T19:18:30;101066.84;;;29.14;34.12
30073;BME280;16897;52.422;13.678;2023-07-16T19:22:34;101066.09;;;28.99;34.06
30073;BME280;16897;52.422;13.678;2023-07-16T19:26:36;101078.06;;;28.96;34.25
30073;BME280;16897;52.422;13.678;2023-07-16T19:30:38;101087.75;;;28.90;34.36
30073;BME280;16897;52.422;13.678;2023-07-16T19:34:39;101081.44;;;28.77;34.28
30073;BME280;16897;52.422;13.678;2023-07-16T19:38:44;101083.66;;;28.66;34.65
30073;BME280;16897;52.422;13.678;2023-07-16T19:42:45;101095.19;;;28.60;34.35
30073;BME280;16897;52.422;13.678;2023-07-16T19:46:47;101075.47;;;28.32;34.46
30073;BME280;16897;52.422;13.678;2023-07-16T19:50:48;101099.25;;;28.35;34.40
30073;BME280;16897;52.422;13.678;2023-07-16T19:54:50;101090.91;;;28.23;34.38
30073;BME280;16897;52.422;13.678;2023-07-16T19:58:51;101103.63;;;28.14;34.77
30073;BME280;16897;52.422;13.678;2023-07-16T20:02:52;101095.59;;;27.99;34.60
30073;BME280;16897;52.422;13.678;2023-07-16T20:06:54;101111.72;;;27.99;34.81
30073;BME280;16897;52.422;13.678;2023-07-16T20:10:55;101093.97;;;27.84;34.56
30073;BME280;16897;52.422;13.678;2023-07-16T20:14:57;101100.72;;;27.79;34.84
30073;BME280;16897;52.422;13.678;2023-07-16T20:18:59;101103.53;;;27.71;34.61
30073;BME280;16897;52.422;13.678;2023-07-16T20:23:00;101081.53;;;27.46;34.65
30073;BME280;16897;52.422;13.678;2023-07-16T20:27:02;101104.75;;;27.54;34.94
30073;BME280;16897;52.422;13.678;2023-07-16T20:31:05;101119.28;;;27.45;34.64
30073;BME280;16897;52.422;13.678;2023-07-16T20:35:09;101107.34;;;27.32;35.03
30073;BME280;16897;52.422;13.678;2023-07-16T20:39:11;101094.47;;;27.13;34.91
30073;BME280;16897;52.422;13.678;2023-07-16T20:43:13;101107.88;;;27.13;34.90
30073;BME280;16897;52.422;13.678;2023-07-16T20:47:16;101110.25;;;27.08;34.65
30073;BME280;16897;52.422;13.678;2023-07-16T20:51:18;101091.22;;;26.88;34.76
30073;BME280;16897;52.422;13.678;2023-07-16T20:55:20;101105.44;;;26.88;35.04
30073;BME280;16897;52.422;13.678;2023-07-16T20:59:21;101111.53;;;26.82;35.02